sensor_id;sensor_type;location;lat;lon;timestamp;pressure;altitude;pressure_sealevel;temperature;humidity
34983;BME280;21187;50.976;13.720;2023-02-28T00:00:16;99491.72;;;2.91;53.28
34983;BME280;21187;50.976;13.720;2023-02-28T00:05:20;99494.41;;;2.91;53.08
34983;BME280;21187;50.976;13.720;2023-02-28T00:10:26;99498.69;;;2.92;53.23
34983;BME280;21187;50.976;13.720;2023-02-28T00:15:28;99494.13;;;2.92;53.26
34983;BME280;21187;50.976;13.720;2023-02-28T00:20:30;99500.28;;;2.98;53.22
34983;BME280;21187;50.976;13.720;2023-02-28T00:25:32;99492.53;;;2.96;53.45
34983;BME280;21187;50.976;13.720;2023-02-28T00:30:33;99495.75;;;2.98;53.49
34983;BME280;21187;50.976;13.720;2023-02-28T00:35:38;99489.59;;;3.03;53.36
34983;BME280;21187;50.976;13.720;2023-02-28T00:40:43;99499.50;;;3.03;53.28
34983;BME280;21187;50.976;13.720;2023-02-28T00:45:45;99490.69;;;2.97;53.58
34983;BME280;21187;50.976;13.720;2023-02-28T00:50:49;99489.06;;;2.96;53.50
34983;BME280;21187;50.976;13.720;2023-02-28T00:55:51;99489.06;;;2.96;53.66
34983;BME280;21187;50.976;13.720;2023-02-28T01:00:53;99482.66;;;2.92;53.45
34983;BME280;21187;50.976;13.720;2023-02-28T01:05:55;99483.16;;;2.89;53.53
34983;BME280;21187;50.976;13.720;2023-02-28T01:10:57;99487.97;;;2.81;53.15
34983;BME280;21187;50.976;13.720;2023-02-28T01:15:59;99482.06;;;2.79;53.17
34983;BME280;21187;50.976;13.720;2023-02-28T01:21:27;99479.41;;;2.79;53.12
34983;BME280;21187;50.976;13.720;2023-02-28T01:26:31;99477.28;;;2.81;53.48
34983;BME280;21187;50.976;13.720;2023-02-28T01:31:33;99474.31;;;2.83;53.47
34983;BME280;21187;50.976;13.720;2023-02-28T01:36:35;99466.56;;;2.81;52.89
34983;BME280;21187;50.976;13.720;2023-02-28T01:41:39;99463.06;;;2.81;52.78
34983;BME280;21187;50.976;13.720;2023-02-28T01:46:41;99470.31;;;2.80;52.93
34983;BME280;21187;50.976;13.720;2023-02-28T01:51:50;99474.06;;;2.79;53.08
34983;BME280;21187;50.976;13.720;2023-02-28T01:57:08;99464.16;;;2.80;53.36
34983;BME280;21187;50.976;13.720;2023-02-28T02:02:15;99460.94;;;2.78;53.47
34983;BME280;21187;50.976;13.720;2023-02-28T02:07:18;99462.28;;;2.75;52.81
34983;BME280;21187;50.976;13.720;2023-02-28T02:17:52;99458.81;;;2.75;52.88
34983;BME280;21187;50.976;13.720;2023-02-28T02:39:16;99448.38;;;2.73;52.97
34983;BME280;21187;50.976;13.720;2023-02-28T02:44:28;99453.72;;;2.73;52.71
34983;BME280;21187;50.976;13.720;2023-02-28T02:49:35;99454.25;;;2.70;52.87
34983;BME280;21187;50.976;13.720;2023-02-28T02:54:40;99461.47;;;2.64;53.37
34983;BME280;21187;50.976;13.720;2023-02-28T02:59:44;99461.47;;;2.64;53.33
34983;BME280;21187;50.976;13.720;2023-02-28T03:04:51;99455.84;;;2.66;53.64
34983;BME280;21187;50.976;13.720;2023-02-28T03:09:56;99460.13;;;2.62;53.55
34983;BME280;21187;50.976;13.720;2023-02-28T03:15:13;99461.72;;;2.58;53.80
34983;BME280;21187;50.976;13.720;2023-02-28T03:20:57;99456.88;;;2.55;53.70
34983;BME280;21187;50.976;13.720;2023-02-28T03:26:22;99449.41;;;2.52;53.67
34983;BME280;21187;50.976;13.720;2023-02-28T03:31:33;99447.78;;;2.50;53.64
34983;BME280;21187;50.976;13.720;2023-02-28T03:36:43;99453.97;;;2.51;53.56
34983;BME280;21187;50.976;13.720;2023-02-28T03:42:00;99456.34;;;2.47;53.79
34983;BME280;21187;50.976;13.720;2023-02-28T03:47:13;99456.34;;;2.47;53.58
34983;BME280;21187;50.976;13.720;2023-02-28T03:52:18;99453.69;;;2.47;53.62
34983;BME280;21187;50.976;13.720;2023-02-28T03:58:37;99456.88;;;2.44;53.67
34983;BME280;21187;50.976;13.720;2023-02-28T04:03:19;99465.16;;;2.43;53.56
34983;BME280;21187;50.976;13.720;2023-02-28T04:08:22;99469.94;;;2.36;53.47
34983;BME280;21187;50.976;13.720;2023-02-28T04:13:24;99474.50;;;2.30;53.19
34983;BME280;21187;50.976;13.720;2023-02-28T04:18:25;99485.75;;;2.42;52.82
34983;BME280;21187;50.976;13.720;2023-02-28T04:23:27;99481.13;;;2.22;53.68
34983;BME280;21187;50.976;13.720;2023-02-28T04:28:29;99480.56;;;2.15;53.17
34983;BME280;21187;50.976;13.720;2023-02-28T04:33:32;99481.09;;;2.12;53.36
34983;BME280;21187;50.976;13.720;2023-02-28T04:38:35;99473.34;;;2.10;53.25
34983;BME280;21187;50.976;13.720;2023-02-28T04:43:38;99483.44;;;2.03;53.16
34983;BME280;21187;50.976;13.720;2023-02-28T04:48:40;99489.03;;;1.96;53.00
34983;BME280;21187;50.976;13.720;2023-02-28T04:53:42;99485.25;;;1.87;53.15
34983;BME280;21187;50.976;13.720;2023-02-28T04:58:45;99487.63;;;1.78;53.02
34983;BME280;21187;50.976;13.720;2023-02-28T05:03:48;99492.34;;;1.66;53.04
34983;BME280;21187;50.976;13.720;2023-02-28T05:08:50;99494.94;;;1.56;53.07
34983;BME280;21187;50.976;13.720;2023-02-28T05:13:52;99507.16;;;1.41;53.07
34983;BME280;21187;50.976;13.720;2023-02-28T05:18:56;99510.50;;;1.26;53.37
34983;BME280;21187;50.976;13.720;2023-02-28T05:24:03;99506.94;;;1.15;53.47
34983;BME280;21187;50.976;13.720;2023-02-28T05:29:06;99502.03;;;1.02;53.39
34983;BME280;21187;50.976;13.720;2023-02-28T05:34:08;99512.03;;;0.90;53.39
34983;BME280;21187;50.976;13.720;2023-02-28T05:39:12;99508.66;;;0.72;53.67
34983;BME280;21187;50.976;13.720;2023-02-28T05:44:15;99502.22;;;0.68;53.77
34983;BME280;21187;50.976;13.720;2023-02-28T05:49:17;99510.19;;;0.63;53.98
34983;BME280;21187;50.976;13.720;2023-02-28T05:54:18;99509.59;;;0.56;53.55
34983;BME280;21187;50.976;13.720;2023-02-28T05:59:20;99518.19;;;0.63;53.49
34983;BME280;21187;50.976;13.720;2023-02-28T06:04:22;99518.19;;;0.63;53.44
34983;BME280;21187;50.976;13.720;2023-02-28T06:09:32;99523.97;;;0.55;53.47
34983;BME280;21187;50.976;13.720;2023-02-28T06:14:34;99525.25;;;0.52;53.37
34983;BME280;21187;50.976;13.720;2023-02-28T06:19:37;99523.66;;;0.51;53.27
34983;BME280;21187;50.976;13.720;2023-02-28T06:24:40;99535.22;;;0.62;53.62
34983;BME280;21187;50.976;13.720;2023-02-28T06:29:42;99540.19;;;0.75;53.67
34983;BME280;21187;50.976;13.720;2023-02-28T06:34:44;99553.31;;;1.09;53.12
34983;BME280;21187;50.976;13.720;2023-02-28T06:39:45;99554.25;;;1.25;53.40
34983;BME280;21187;50.976;13.720;2023-02-28T06:44:47;99568.59;;;1.52;53.11
34983;BME280;21187;50.976;13.720;2023-02-28T06:49:50;99571.47;;;1.77;53.35
34983;BME280;21187;50.976;13.720;2023-02-28T06:54:51;99572.94;;;2.00;53.02
34983;BME280;21187;50.976;13.720;2023-02-28T07:00:04;99570.69;;;2.25;53.04
34983;BME280;21187;50.976;13.720;2023-02-28T07:05:07;99578.81;;;2.50;53.09
34983;BME280;21187;50.976;13.720;2023-02-28T07:10:10;99573.56;;;2.76;53.04
34983;BME280;21187;50.976;13.720;2023-02-28T07:15:13;99584.28;;;2.81;53.48
34983;BME280;21187;50.976;13.720;2023-02-28T07:20:14;99586.69;;;2.78;53.23
34983;BME280;21187;50.976;13.720;2023-02-28T07:25:16;99584.56;;;2.85;53.57
34983;BME280;21187;50.976;13.720;2023-02-28T07:30:18;99583.81;;;3.05;53.77
34983;BME280;21187;50.976;13.720;2023-02-28T07:35:20;99583.31;;;3.34;52.99
34983;BME280;21187;50.976;13.720;2023-02-28T07:40:22;99586.25;;;3.48;53.45
34983;BME280;21187;50.976;13.720;2023-02-28T07:45:24;99590.53;;;3.75;53.04
34983;BME280;21187;50.976;13.720;2023-02-28T07:50:26;99596.16;;;3.99;53.10
34983;BME280;21187;50.976;13.720;2023-02-28T07:55:32;99597.19;;;4.29;52.63
34983;BME280;21187;50.976;13.720;2023-02-28T08:00:34;99594.97;;;4.46;52.28
34983;BME280;21187;50.976;13.720;2023-02-28T08:05:39;99593.38;;;4.35;51.46
34983;BME280;21187;50.976;13.720;2023-02-28T08:10:41;99593.06;;;4.47;52.09
34983;BME280;21187;50.976;13.720;2023-02-28T08:15:43;99601.34;;;4.61;51.67
34983;BME280;21187;50.976;13.720;2023-02-28T08:20:46;99596.22;;;4.64;51.28
34983;BME280;21187;50.976;13.720;2023-02-28T08:25:55;99598.59;;;4.76;51.53
34983;BME280;21187;50.976;13.720;2023-02-28T08:30:57;99606.53;;;5.02;51.41
34983;BME280;21187;50.976;13.720;2023-02-28T08:35:59;99611.28;;;5.15;50.27
34983;BME280;21187;50.976;13.720;2023-02-28T08:41:06;99605.78;;;5.36;50.33
34983;BME280;21187;50.976;13.720;2023-02-28T08:46:12;99604.13;;;5.40;50.23
34983;BME280;21187;50.976;13.720;2023-02-28T08:51:16;99608.44;;;5.41;50.11
34983;BME280;21187;50.976;13.720;2023-02-28T08:56:20;99609.50;;;5.40;50.08
34983;BME280;21187;50.976;13.720;2023-02-28T09:06:54;99610.44;;;5.60;49.43
34983;BME280;21187;50.976;13.720;2023-02-28T09:11:56;99600.16;;;5.67;48.70
34983;BME280;21187;50.976;13.720;2023-02-28T09:16:58;99605.22;;;5.74;49.25
34983;BME280;21187;50.976;13.720;2023-02-28T09:22:00;99609.94;;;5.87;48.31
34983;BME280;21187;50.976;13.720;2023-02-28T09:27:02;99603.38;;;6.04;47.84
34983;BME280;21187;50.976;13.720;2023-02-28T09:32:06;99603.03;;;6.10;47.57
34983;BME280;21187;50.976;13.720;2023-02-28T09:37:08;99600.88;;;6.12;47.13
34983;BME280;21187;50.976;13.720;2023-02-28T09:42:32;99585.53;;;6.13;46.90
34983;BME280;21187;50.976;13.720;2023-02-28T09:47:41;99596.09;;;6.33;46.76
34983;BME280;21187;50.976;13.720;2023-02-28T09:52:48;99594.47;;;6.32;45.65
34983;BME280;21187;50.976;13.720;2023-02-28T09:57:51;99596.97;;;6.24;45.70
34983;BME280;21187;50.976;13.720;2023-02-28T10:03:10;99600.28;;;6.15;45.54
34983;BME280;21187;50.976;13.720;2023-02-28T10:08:23;99596.19;;;6.23;45.68
34983;BME280;21187;50.976;13.720;2023-02-28T10:18:50;99589.66;;;6.54;45.25
34983;BME280;21187;50.976;13.720;2023-02-28T10:24:01;99586.91;;;6.59;44.75
34983;BME280;21187;50.976;13.720;2023-02-28T10:29:04;99593.19;;;6.73;44.30
34983;BME280;21187;50.976;13.720;2023-02-28T10:34:07;99595.03;;;6.54;43.98
34983;BME280;21187;50.976;13.720;2023-02-28T10:39:41;99591.34;;;6.20;44.38
34983;BME280;21187;50.976;13.720;2023-02-28T10:44:44;99601.88;;;5.87;44.54
34983;BME280;21187;50.976;13.720;2023-02-28T10:49:50;99591.28;;;5.72;44.69
34983;BME280;21187;50.976;13.720;2023-02-28T10:55:14;99589.56;;;5.81;44.55
34983;BME280;21187;50.976;13.720;2023-02-28T11:00:22;99587.59;;;5.92;44.53
34983;BME280;21187;50.976;13.720;2023-02-28T11:05:32;99585.88;;;6.06;44.29
34983;BME280;21187;50.976;13.720;2023-02-28T11:10:34;99583.03;;;6.22;44.48
34983;BME280;21187;50.976;13.720;2023-02-28T11:15:36;99574.31;;;6.54;43.97
34983;BME280;21187;50.976;13.720;2023-02-28T11:20:38;99569.47;;;6.75;43.42
34983;BME280;21187;50.976;13.720;2023-02-28T11:25:56;99562.84;;;6.87;43.32
34983;BME280;21187;50.976;13.720;2023-02-28T11:31:01;99571.66;;;6.92;43.28
34983;BME280;21187;50.976;13.720;2023-02-28T11:36:10;99548.97;;;6.98;43.41
34983;BME280;21187;50.976;13.720;2023-02-28T11:46:41;99542.84;;;6.93;42.71
34983;BME280;21187;50.976;13.720;2023-02-28T11:57:25;99541.13;;;7.35;42.88
34983;BME280;21187;50.976;13.720;2023-02-28T12:35:26;99528.97;;;8.12;42.04
34983;BME280;21187;50.976;13.720;2023-02-28T12:40:45;99531.59;;;8.18;42.15
34983;BME280;21187;50.976;13.720;2023-02-28T12:45:53;99523.78;;;8.30;41.87
34983;BME280;21187;50.976;13.720;2023-02-28T12:50:59;99515.81;;;8.25;41.40
34983;BME280;21187;50.976;13.720;2023-02-28T12:56:17;99512.97;;;8.30;41.28
34983;BME280;21187;50.976;13.720;2023-02-28T13:01:36;99509.38;;;8.35;41.13
34983;BME280;21187;50.976;13.720;2023-02-28T13:12:12;99508.19;;;8.55;41.09
34983;BME280;21187;50.976;13.720;2023-02-28T13:17:33;99507.09;;;8.56;40.72
34983;BME280;21187;50.976;13.720;2023-02-28T13:27:40;99507.00;;;8.33;40.71
34983;BME280;21187;50.976;13.720;2023-02-28T13:32:43;99509.69;;;8.47;40.45
34983;BME280;21187;50.976;13.720;2023-02-28T13:37:46;99511.97;;;8.54;40.25
34983;BME280;21187;50.976;13.720;2023-02-28T13:42:51;99510.78;;;8.60;40.75
34983;BME280;21187;50.976;13.720;2023-02-28T13:47:55;99498.38;;;8.59;40.79
34983;BME280;21187;50.976;13.720;2023-02-28T13:53:41;99492.88;;;8.87;40.45
34983;BME280;21187;50.976;13.720;2023-02-28T14:09:35;99476.78;;;14.47;37.15
34983;BME280;21187;50.976;13.720;2023-02-28T14:20:15;99468.41;;;16.33;34.46
34983;BME280;21187;50.976;13.720;2023-02-28T14:30:51;99461.84;;;16.54;34.39
34983;BME280;21187;50.976;13.720;2023-02-28T14:40:58;99453.88;;;16.29;33.09
34983;BME280;21187;50.976;13.720;2023-02-28T14:46:04;99451.97;;;13.74;34.98
34983;BME280;21187;50.976;13.720;2023-02-28T14:51:08;99458.69;;;12.04;36.36
34983;BME280;21187;50.976;13.720;2023-02-28T14:56:21;99462.69;;;10.77;37.54
34983;BME280;21187;50.976;13.720;2023-02-28T15:01:24;99465.81;;;9.95;38.51
34983;BME280;21187;50.976;13.720;2023-02-28T15:06:27;99467.47;;;9.10;38.06
34983;BME280;21187;50.976;13.720;2023-02-28T15:11:31;99464.97;;;8.55;39.07
34983;BME280;21187;50.976;13.720;2023-02-28T15:16:40;99471.41;;;8.31;38.59
34983;BME280;21187;50.976;13.720;2023-02-28T15:21:45;99471.84;;;8.10;39.15
34983;BME280;21187;50.976;13.720;2023-02-28T15:26:54;99467.81;;;7.94;38.97
34983;BME280;21187;50.976;13.720;2023-02-28T15:32:05;99469.50;;;7.76;39.23
34983;BME280;21187;50.976;13.720;2023-02-28T15:37:32;99474.91;;;7.62;39.11
34983;BME280;21187;50.976;13.720;2023-02-28T15:42:37;99466.00;;;7.47;39.67
34983;BME280;21187;50.976;13.720;2023-02-28T15:47:39;99480.25;;;7.34;39.48
34983;BME280;21187;50.976;13.720;2023-02-28T15:52:43;99477.56;;;7.15;39.74
34983;BME280;21187;50.976;13.720;2023-02-28T15:57:49;99483.22;;;6.99;39.74
34983;BME280;21187;50.976;13.720;2023-02-28T16:02:52;99477.19;;;6.89;39.85
34983;BME280;21187;50.976;13.720;2023-02-28T16:07:56;99478.38;;;6.82;40.02
34983;BME280;21187;50.976;13.720;2023-02-28T16:12:58;99479.00;;;6.74;39.94
34983;BME280;21187;50.976;13.720;2023-02-28T16:18:00;99479.66;;;6.66;40.32
34983;BME280;21187;50.976;13.720;2023-02-28T16:23:02;99485.78;;;6.53;40.83
34983;BME280;21187;50.976;13.720;2023-02-28T16:28:19;99477.75;;;6.47;40.45
34983;BME280;21187;50.976;13.720;2023-02-28T16:33:22;99483.28;;;6.37;40.90
34983;BME280;21187;50.976;13.720;2023-02-28T16:38:24;99483.13;;;6.28;41.06
34983;BME280;21187;50.976;13.720;2023-02-28T16:43:26;99486.69;;;6.24;41.10
34983;BME280;21187;50.976;13.720;2023-02-28T16:48:28;99487.31;;;6.15;41.21
34983;BME280;21187;50.976;13.720;2023-02-28T16:53:32;99484.81;;;6.00;41.53
34983;BME280;21187;50.976;13.720;2023-02-28T16:58:34;99492.50;;;5.82;41.69
34983;BME280;21187;50.976;13.720;2023-02-28T17:03:37;99493.19;;;5.69;41.79
34983;BME280;21187;50.976;13.720;2023-02-28T17:08:39;99496.53;;;5.56;41.89
34983;BME280;21187;50.976;13.720;2023-02-28T17:13:41;99503.63;;;5.46;41.89
34983;BME280;21187;50.976;13.720;2023-02-28T17:18:42;99501.00;;;5.36;42.04
34983;BME280;21187;50.976;13.720;2023-02-28T17:23:44;99505.94;;;5.24;42.18
34983;BME280;21187;50.976;13.720;2023-02-28T17:28:47;99497.91;;;5.19;42.26
34983;BME280;21187;50.976;13.720;2023-02-28T17:33:50;99498.22;;;5.12;42.57
34983;BME280;21187;50.976;13.720;2023-02-28T17:38:53;99501.84;;;4.97;42.88
34983;BME280;21187;50.976;13.720;2023-02-28T17:43:56;99502.03;;;4.71;43.09
34983;BME280;21187;50.976;13.720;2023-02-28T17:48:58;99502.69;;;4.47;43.49
34983;BME280;21187;50.976;13.720;2023-02-28T17:54:01;99497.09;;;4.33;43.46
34983;BME280;21187;50.976;13.720;2023-02-28T17:59:03;99482.41;;;4.21;43.57
34983;BME280;21187;50.976;13.720;2023-02-28T18:04:05;99482.50;;;4.05;44.27
34983;BME280;21187;50.976;13.720;2023-02-28T18:09:08;99477.06;;;4.15;43.52
34983;BME280;21187;50.976;13.720;2023-02-28T18:14:10;99473.31;;;4.16;43.72
34983;BME280;21187;50.976;13.720;2023-02-28T18:19:12;99488.94;;;3.99;44.39
34983;BME280;21187;50.976;13.720;2023-02-28T18:24:19;99485.22;;;3.90;44.48
34983;BME280;21187;50.976;13.720;2023-02-28T18:29:24;99481.19;;;3.97;44.03
34983;BME280;21187;50.976;13.720;2023-02-28T18:34:26;99481.66;;;4.05;43.96
34983;BME280;21187;50.976;13.720;2023-02-28T18:39:29;99478.25;;;3.89;44.06
34983;BME280;21187;50.976;13.720;2023-02-28T18:44:31;99487.94;;;3.69;44.45
34983;BME280;21187;50.976;13.720;2023-02-28T18:49:33;99476.72;;;3.46;44.49
34983;BME280;21187;50.976;13.720;2023-02-28T18:54:57;99488.53;;;3.20;44.75
34983;BME280;21187;50.976;13.720;2023-02-28T18:59:58;99479.69;;;2.98;45.46
34983;BME280;21187;50.976;13.720;2023-02-28T19:05:00;99489.84;;;2.91;45.33
34983;BME280;21187;50.976;13.720;2023-02-28T19:10:03;99481.56;;;3.03;45.06
34983;BME280;21187;50.976;13.720;2023-02-28T19:15:06;99480.78;;;3.08;45.01
34983;BME280;21187;50.976;13.720;2023-02-28T19:20:08;99481.03;;;3.11;45.32
34983;BME280;21187;50.976;13.720;2023-02-28T19:25:11;99489.06;;;3.22;45.11
34983;BME280;21187;50.976;13.720;2023-02-28T19:30:13;99491.22;;;3.14;45.26
34983;BME280;21187;50.976;13.720;2023-02-28T19:35:15;99492.78;;;2.90;45.26
34983;BME280;21187;50.976;13.720;2023-02-28T19:40:17;99484.47;;;2.76;45.56
34983;BME280;21187;50.976;13.720;2023-02-28T19:45:19;99491.19;;;2.73;45.62
34983;BME280;21187;50.976;13.720;2023-02-28T19:50:21;99490.59;;;2.61;45.80
34983;BME280;21187;50.976;13.720;2023-02-28T19:55:23;99490.59;;;2.61;46.05
34983;BME280;21187;50.976;13.720;2023-02-28T20:00:25;99493.84;;;2.78;45.42
34983;BME280;21187;50.976;13.720;2023-02-28T20:05:27;99496.53;;;2.89;45.65
34983;BME280;21187;50.976;13.720;2023-02-28T20:10:28;99505.66;;;2.82;45.51
34983;BME280;21187;50.976;13.720;2023-02-28T20:15:31;99504.31;;;2.80;45.59
34983;BME280;21187;50.976;13.720;2023-02-28T20:20:33;99513.38;;;2.74;45.33
34983;BME280;21187;50.976;13.720;2023-02-28T20:25:38;99505.63;;;2.77;45.43
34983;BME280;21187;50.976;13.720;2023-02-28T20:30:41;99499.47;;;2.77;45.38
34983;BME280;21187;50.976;13.720;2023-02-28T20:35:43;99501.88;;;2.73;45.43
34983;BME280;21187;50.976;13.720;2023-02-28T20:40:45;99498.13;;;2.64;45.79
34983;BME280;21187;50.976;13.720;2023-02-28T20:45:58;99500.22;;;2.57;46.11
34983;BME280;21187;50.976;13.720;2023-02-28T20:51:05;99484.69;;;2.48;46.26
34983;BME280;21187;50.976;13.720;2023-02-28T21:01:43;99504.72;;;2.41;46.34
34983;BME280;21187;50.976;13.720;2023-02-28T21:06:45;99497.47;;;2.36;46.02
34983;BME280;21187;50.976;13.720;2023-02-28T21:11:52;99491.91;;;2.38;46.23
34983;BME280;21187;50.976;13.720;2023-02-28T21:16:54;99497.53;;;2.46;46.07
34983;BME280;21187;50.976;13.720;2023-02-28T21:21:56;99498.50;;;2.20;46.24
34983;BME280;21187;50.976;13.720;2023-02-28T21:26:59;99503.75;;;1.99;46.80
34983;BME280;21187;50.976;13.720;2023-02-28T21:32:02;99498.03;;;1.80;47.28
34983;BME280;21187;50.976;13.720;2023-02-28T21:37:04;99507.75;;;1.54;47.75
34983;BME280;21187;50.976;13.720;2023-02-28T21:42:08;99511.09;;;1.33;48.08
34983;BME280;21187;50.976;13.720;2023-02-28T21:47:10;99512.97;;;1.38;47.80
34983;BME280;21187;50.976;13.720;2023-02-28T21:52:12;99520.47;;;1.36;48.07
34983;BME280;21187;50.976;13.720;2023-02-28T21:57:14;99517.91;;;1.57;47.67
34983;BME280;21187;50.976;13.720;2023-02-28T22:02:17;99509.72;;;1.69;47.13
34983;BME280;21187;50.976;13.720;2023-02-28T22:07:19;99497.72;;;1.71;47.09
34983;BME280;21187;50.976;13.720;2023-02-28T22:12:20;99499.91;;;1.79;47.01
34983;BME280;21187;50.976;13.720;2023-02-28T22:17:22;99497.22;;;1.79;46.81
34983;BME280;21187;50.976;13.720;2023-02-28T22:22:24;99504.75;;;1.82;46.67
34983;BME280;21187;50.976;13.720;2023-02-28T22:27:26;99505.25;;;1.79;46.65
34983;BME280;21187;50.976;13.720;2023-02-28T22:32:28;99507.31;;;1.67;46.74
34983;BME280;21187;50.976;13.720;2023-02-28T22:37:30;99495.47;;;1.53;47.06
34983;BME280;21187;50.976;13.720;2023-02-28T22:42:32;99491.66;;;1.43;47.10
34983;BME280;21187;50.976;13.720;2023-02-28T22:47:34;99496.47;;;1.46;46.97
34983;BME280;21187;50.976;13.720;2023-02-28T22:52:38;99497.22;;;1.37;47.01
34983;BME280;21187;50.976;13.720;2023-02-28T22:57:40;99500.06;;;1.25;47.22
34983;BME280;21187;50.976;13.720;2023-02-28T23:02:43;99503.72;;;1.13;47.40
34983;BME280;21187;50.976;13.720;2023-02-28T23:07:45;99512.78;;;1.12;47.44
34983;BME280;21187;50.976;13.720;2023-02-28T23:12:47;99506.94;;;1.15;47.09
34983;BME280;21187;50.976;13.720;2023-02-28T23:17:54;99508.00;;;1.14;47.33
34983;BME280;21187;50.976;13.720;2023-02-28T23:22:56;99512.78;;;1.12;47.33
34983;BME280;21187;50.976;13.720;2023-02-28T23:27:57;99511.19;;;1.11;47.22
34983;BME280;21187;50.976;13.720;2023-02-28T23:38:24;99504.53;;;0.87;47.79
34983;BME280;21187;50.976;13.720;2023-02-28T23:43:27;99512.44;;;0.76;47.75
34983;BME280;21187;50.976;13.720;2023-02-28T23:48:29;99516.63;;;0.67;47.99
34983;BME280;21187;50.976;13.720;2023-02-28T23:53:31;99507.50;;;0.63;47.84
34983;BME280;21187;50.976;13.720;2023-02-28T23:58:34;99512.59;;;0.64;48.17
